Time;durP1;ratioP1;P1;durP2;ratioP2;P2;SDS_P1;SDS_P2;PMS_P1;PMS_P2;Temp;Humidity;BMP_temperature;BMP_pressure;BME280_temperature;BME280_humidity;BME280_pressure;Samples;Min_cycle;Max_cycle;Signal;HPM_P1;HPM_P2
2023/10/07 00:01:07;;;;;;;;;;;;;;;23.88;nan;101279.91;5060559;28;19924;-92
2023/10/07 00:02:59;;;;;;;;;;;;;;;23.89;nan;101265.13;5046216;28;20039;-88
2023/10/07 00:05:42;;;;;;;;;;;;;;;23.84;nan;101270.75;5066575;28;19999;-89
2023/10/07 00:08:08;;;;;;;;;;;;;;;23.81;nan;101259.34;5065086;28;19932;-90
2023/10/07 00:10:37;;;;;;;;;;;;;;;23.80;nan;101263.19;5058920;28;19942;-89
2023/10/07 00:13:06;;;;;;;;;;;;;;;23.84;nan;101249.66;5062326;28;19924;-89
2023/10/07 00:15:32;;;;;;;;;;;;;;;23.85;nan;101255.94;5064081;28;20399;-89
2023/10/07 00:18:05;;;;;;;;;;;;;;;23.81;nan;101248.38;5067042;28;19916;-88
2023/10/07 00:20:33;;;;;;;;;;;;;;;23.87;nan;101256.41;5047358;28;20400;-87
2023/10/07 00:23:00;;;;;;;;;;;;;;;23.92;nan;101242.59;5065575;28;19920;-91
2023/10/07 00:25:30;;;;;;;;;;;;;;;23.88;nan;101252.56;5056264;28;19921;-92
2023/10/07 00:27:55;;;;;;;;;;;;;;;23.93;nan;101238.72;5064011;28;20034;-89
2023/10/07 00:30:22;;;;;;;;;;;;;;;23.93;nan;101239.53;5062580;28;20398;-92
2023/10/07 00:32:50;;;;;;;;;;;;;;;23.91;nan;101252.72;5061856;28;19927;-92
2023/10/07 00:35:19;;;;;;;;;;;;;;;23.91;nan;101238.25;5063778;28;19917;-90
2023/10/07 00:37:44;;;;;;;;;;;;;;;23.91;nan;101235.50;5059814;28;19962;-89
2023/10/07 00:42:54;;;;;;;;;;;;;;;23.82;nan;101232.78;5062583;28;19951;-90
2023/10/07 00:45:20;;;;;;;;;;;;;;;23.79;nan;101212.34;5064958;28;19920;-94
2023/10/07 00:47:49;;;;;;;;;;;;;;;23.83;nan;101217.97;5062624;28;19931;-89
2023/10/07 00:50:15;;;;;;;;;;;;;;;23.77;nan;101209.13;5062634;28;20025;-91
2023/10/07 00:52:55;;;;;;;;;;;;;;;23.82;nan;101208.16;5060001;28;19932;-89
2023/10/07 00:55:35;;;;;;;;;;;;;;;23.76;nan;101202.06;5059136;28;19916;-92
2023/10/07 00:58:07;;;;;;;;;;;;;;;23.78;nan;101216.22;5065072;28;19923;-89
2023/10/07 01:00:46;;;;;;;;;;;;;;;23.76;nan;101193.84;5065009;28;19947;-91
2023/10/07 01:08:30;;;;;;;;;;;;;;;23.76;nan;101190.31;5060283;28;20125;-90
2023/10/07 01:11:07;;;;;;;;;;;;;;;23.78;nan;101190.78;5060074;28;19924;-88
2023/10/07 01:13:34;;;;;;;;;;;;;;;23.77;nan;101189.19;5067021;28;20224;-92
2023/10/07 01:15:59;;;;;;;;;;;;;;;23.77;nan;101187.25;5069628;28;20451;-96
2023/10/07 01:18:27;;;;;;;;;;;;;;;23.78;nan;101183.38;5063879;28;20043;-93
2023/10/07 01:23:23;;;;;;;;;;;;;;;23.83;nan;101190.59;5067715;28;19960;-91
2023/10/07 01:25:50;;;;;;;;;;;;;;;23.83;nan;101187.06;5072719;28;19936;-91
2023/10/07 01:28:20;;;;;;;;;;;;;;;23.76;nan;101188.38;5063071;28;19916;-90
2023/10/07 01:31:07;;;;;;;;;;;;;;;23.74;nan;101179.69;5062012;28;19978;-89
2023/10/07 01:33:39;;;;;;;;;;;;;;;23.77;nan;101175.50;5059993;28;19944;-92
2023/10/07 01:36:14;;;;;;;;;;;;;;;23.77;nan;101195.47;5059884;28;19926;-91
2023/10/07 01:38:44;;;;;;;;;;;;;;;23.83;nan;101176.91;5056301;28;20081;-91
2023/10/07 01:41:19;;;;;;;;;;;;;;;23.79;nan;101176.78;5041129;28;19917;-90
2023/10/07 01:43:56;;;;;;;;;;;;;;;23.79;nan;101179.50;5046575;28;20218;-92
2023/10/07 01:46:29;;;;;;;;;;;;;;;23.78;nan;101175.16;5045947;28;19932;-96
2023/10/07 01:48:55;;;;;;;;;;;;;;;23.75;nan;101173.09;5042836;28;19960;-91
2023/10/07 01:51:26;;;;;;;;;;;;;;;23.77;nan;101173.56;5043358;28;19932;-90
2023/10/07 01:53:56;;;;;;;;;;;;;;;23.70;nan;101156.88;5039991;28;19921;-91
2023/10/07 01:56:22;;;;;;;;;;;;;;;23.77;nan;101168.09;5043285;28;19917;-91
2023/10/07 01:58:47;;;;;;;;;;;;;;;23.76;nan;101166.50;5049148;28;20396;-91
2023/10/07 02:01:16;;;;;;;;;;;;;;;23.81;nan;101162.75;5043999;28;19944;-93
2023/10/07 02:03:44;;;;;;;;;;;;;;;23.78;nan;101169.69;5043811;28;19936;-88
2023/10/07 02:06:09;;;;;;;;;;;;;;;23.71;nan;101179.56;5042023;28;19928;-90
2023/10/07 02:08:37;;;;;;;;;;;;;;;23.70;nan;101173.28;5037215;28;20274;-91
2023/10/07 02:11:05;;;;;;;;;;;;;;;23.80;nan;101177.56;5039945;28;19931;-91
2023/10/07 02:13:31;;;;;;;;;;;;;;;23.83;nan;101167.91;5041488;28;19916;-90
2023/10/07 02:15:56;;;;;;;;;;;;;;;23.77;nan;101165.34;5047207;28;19920;-87
2023/10/07 02:18:28;;;;;;;;;;;;;;;23.76;nan;101162.94;5026064;28;19921;-89
2023/10/07 02:21:07;;;;;;;;;;;;;;;23.69;nan;101165.38;5042721;28;19925;-91
2023/10/07 02:23:43;;;;;;;;;;;;;;;23.71;nan;101158.47;5038765;28;19921;-89
2023/10/07 02:26:19;;;;;;;;;;;;;;;23.69;nan;101152.50;5041938;28;20418;-91
2023/10/07 02:28:46;;;;;;;;;;;;;;;23.68;nan;101150.09;5044963;28;19924;-94
2023/10/07 02:31:20;;;;;;;;;;;;;;;23.74;nan;101148.81;5045421;28;20197;-90
2023/10/07 02:33:52;;;;;;;;;;;;;;;23.74;nan;101157.81;5042053;28;19921;-89
2023/10/07 02:36:36;;;;;;;;;;;;;;;23.79;nan;101149.41;5035585;28;19963;-91
2023/10/07 02:39:04;;;;;;;;;;;;;;;23.78;nan;101158.75;5045183;28;19921;-91
2023/10/07 02:41:31;;;;;;;;;;;;;;;23.84;nan;101155.84;5042790;28;19917;-91
2023/10/07 02:44:03;;;;;;;;;;;;;;;23.86;nan;101142.63;5043066;28;20427;-89
2023/10/07 02:46:32;;;;;;;;;;;;;;;23.88;nan;101157.59;5036489;28;19943;-88
2023/10/07 02:49:06;;;;;;;;;;;;;;;23.89;nan;101161.94;5039574;28;20761;-89
2023/10/07 02:51:39;;;;;;;;;;;;;;;23.91;nan;101150.69;5039111;28;19932;-89
2023/10/07 02:54:15;;;;;;;;;;;;;;;23.90;nan;101160.81;5040989;28;20024;-91
2023/10/07 02:56:44;;;;;;;;;;;;;;;23.97;nan;101165.78;5044566;28;19924;-90
2023/10/07 02:59:35;;;;;;;;;;;;;;;23.99;nan;101153.34;5047604;28;19917;-91
2023/10/07 03:02:13;;;;;;;;;;;;;;;23.98;nan;101149.03;5034235;28;19921;-91
2023/10/07 03:04:43;;;;;;;;;;;;;;;24.02;nan;101151.91;5041471;28;20008;-90
2023/10/07 03:07:15;;;;;;;;;;;;;;;24.00;nan;101152.22;5036783;28;19994;-92
2023/10/07 03:12:28;;;;;;;;;;;;;;;24.09;nan;101163.16;5039745;28;20339;-91
2023/10/07 03:14:58;;;;;;;;;;;;;;;24.03;nan;101153.50;5039311;28;19925;-93
2023/10/07 03:17:33;;;;;;;;;;;;;;;24.04;nan;101158.66;5030381;28;19921;-91
2023/10/07 03:20:23;;;;;;;;;;;;;;;24.07;nan;101159.94;5039317;28;19932;-91
2023/10/07 03:23:10;;;;;;;;;;;;;;;24.08;nan;101161.56;5043655;28;19925;-87
2023/10/07 03:25:34;;;;;;;;;;;;;;;24.08;nan;101159.63;5043980;28;19927;-92
2023/10/07 03:28:07;;;;;;;;;;;;;;;24.08;nan;101156.88;5042616;28;19928;-91
2023/10/07 03:30:36;;;;;;;;;;;;;;;24.13;nan;101157.81;5048057;28;19936;-93
2023/10/07 03:33:08;;;;;;;;;;;;;;;24.14;nan;101167.63;5042542;28;19928;-93
2023/10/07 03:36:07;;;;;;;;;;;;;;;24.21;nan;101170.66;5043183;28;19921;-91
2023/10/07 03:38:25;;;;;;;;;;;;;;;24.25;nan;101169.69;5056778;28;19924;-91
2023/10/07 03:40:56;;;;;;;;;;;;;;;24.20;nan;101164.38;5045766;28;19932;-93
2023/10/07 03:43:25;;;;;;;;;;;;;;;24.22;nan;101164.84;5035377;28;19956;-89
2023/10/07 03:45:51;;;;;;;;;;;;;;;24.24;nan;101167.28;5047480;28;19938;-92
2023/10/07 03:48:30;;;;;;;;;;;;;;;24.28;nan;101170.94;5045893;28;20397;-89
2023/10/07 03:51:04;;;;;;;;;;;;;;;24.28;nan;101155.31;5047904;28;19924;-88
2023/10/07 03:53:32;;;;;;;;;;;;;;;24.25;nan;101155.19;5038519;28;19921;-89
2023/10/07 03:56:00;;;;;;;;;;;;;;;24.24;nan;101148.91;5045062;28;19920;-91
2023/10/07 03:58:28;;;;;;;;;;;;;;;24.21;nan;101149.53;5044952;28;19932;-92
2023/10/07 04:00:54;;;;;;;;;;;;;;;24.22;nan;101148.41;5042408;28;19924;-93
2023/10/07 04:03:23;;;;;;;;;;;;;;;24.22;nan;101156.63;5040939;28;19988;-89
2023/10/07 04:05:49;;;;;;;;;;;;;;;24.21;nan;101159.69;5040115;28;19956;-90
2023/10/07 04:08:14;;;;;;;;;;;;;;;24.24;nan;101161.81;5039173;28;19967;-93
2023/10/07 04:10:45;;;;;;;;;;;;;;;24.23;nan;101144.53;5043192;28;19972;-88
2023/10/07 04:13:21;;;;;;;;;;;;;;;24.21;nan;101146.00;5046086;28;20049;-89
2023/10/07 04:15:52;;;;;;;;;;;;;;;24.16;nan;101147.00;5047316;28;20001;-90
2023/10/07 04:18:23;;;;;;;;;;;;;;;24.13;nan;101163.28;5049732;28;20009;-92
2023/10/07 04:23:21;;;;;;;;;;;;;;;24.16;nan;101149.75;5052895;28;19932;-91
2023/10/07 04:25:47;;;;;;;;;;;;;;;24.20;nan;101142.47;5041962;28;19927;-95
2023/10/07 04:28:13;;;;;;;;;;;;;;;24.21;nan;101149.53;5047872;28;19931;-93
2023/10/07 04:30:39;;;;;;;;;;;;;;;24.20;nan;101138.94;5043190;28;19921;-89
2023/10/07 04:33:08;;;;;;;;;;;;;;;24.23;nan;101130.84;5046279;28;20004;-92
2023/10/07 04:35:33;;;;;;;;;;;;;;;24.26;nan;101146.66;5047114;28;19956;-93
2023/10/07 04:38:38;;;;;;;;;;;;;;;24.24;nan;101143.44;5043998;28;19960;-93
2023/10/07 04:43:50;;;;;;;;;;;;;;;24.33;nan;101135.19;5041038;28;19939;-90
2023/10/07 04:46:28;;;;;;;;;;;;;;;24.27;nan;101148.25;5043490;28;19924;-89
2023/10/07 04:48:54;;;;;;;;;;;;;;;24.30;nan;101133.91;5051017;28;19925;-88
2023/10/07 04:51:33;;;;;;;;;;;;;;;24.31;nan;101138.25;5041899;28;19929;-89
2023/10/07 04:54:02;;;;;;;;;;;;;;;24.25;nan;101125.88;5040532;28;19928;-91
2023/10/07 04:56:27;;;;;;;;;;;;;;;24.26;nan;101126.69;5044507;28;20042;-89
2023/10/07 04:58:53;;;;;;;;;;;;;;;24.25;nan;101133.28;5045858;28;20015;-91
2023/10/07 05:01:31;;;;;;;;;;;;;;;24.25;nan;101144.25;5043257;28;20211;-93
2023/10/07 05:04:09;;;;;;;;;;;;;;;24.22;nan;101145.69;5042483;28;19921;-89
2023/10/07 05:06:35;;;;;;;;;;;;;;;24.21;nan;101151.47;5037894;28;19925;-90
2023/10/07 05:09:09;;;;;;;;;;;;;;;24.17;nan;101154.09;5041821;28;19924;-94
2023/10/07 05:11:37;;;;;;;;;;;;;;;24.18;nan;101160.38;5041401;28;19931;-93
2023/10/07 05:14:03;;;;;;;;;;;;;;;24.11;nan;101158.16;5038540;28;19921;-94
2023/10/07 05:16:28;;;;;;;;;;;;;;;24.15;nan;101156.34;5048595;28;19947;-89
2023/10/07 05:18:54;;;;;;;;;;;;;;;24.15;nan;101161.81;5047634;28;20059;-88
2023/10/07 05:21:21;;;;;;;;;;;;;;;24.17;nan;101161.50;5047171;28;20385;-91
2023/10/07 05:23:47;;;;;;;;;;;;;;;24.20;nan;101169.84;5035583;28;19920;-90
2023/10/07 05:26:17;;;;;;;;;;;;;;;24.14;nan;101173.91;5039451;28;19923;-89
2023/10/07 05:28:44;;;;;;;;;;;;;;;24.14;nan;101157.47;5029794;28;19928;-90
2023/10/07 05:31:11;;;;;;;;;;;;;;;24.18;nan;101174.84;5039336;28;19925;-89
2023/10/07 05:33:37;;;;;;;;;;;;;;;24.22;nan;101162.09;5037329;28;19917;-91
2023/10/07 05:36:16;;;;;;;;;;;;;;;24.24;nan;101170.81;5037742;28;19936;-93
2023/10/07 05:38:44;;;;;;;;;;;;;;;24.22;nan;101167.59;5046109;28;19925;-91
2023/10/07 05:41:12;;;;;;;;;;;;;;;24.20;nan;101182.72;5041441;28;20589;-93
2023/10/07 05:43:48;;;;;;;;;;;;;;;24.17;nan;101170.50;5045595;28;20035;-93
2023/10/07 05:46:14;;;;;;;;;;;;;;;24.12;nan;101173.44;5044841;28;20202;-91
2023/10/07 05:48:40;;;;;;;;;;;;;;;24.18;nan;101180.31;5045165;28;20014;-90
2023/10/07 05:51:08;;;;;;;;;;;;;;;24.16;nan;101190.81;5039130;28;20010;-89
2023/10/07 05:53:37;;;;;;;;;;;;;;;24.10;nan;101181.97;5039939;28;19990;-90
2023/10/07 05:56:05;;;;;;;;;;;;;;;24.07;nan;101190.06;5048148;28;19923;-90
2023/10/07 05:58:34;;;;;;;;;;;;;;;24.07;nan;101198.28;5039513;28;20213;-91
2023/10/07 06:01:00;;;;;;;;;;;;;;;24.11;nan;101199.22;5042311;28;19926;-91
2023/10/07 06:03:25;;;;;;;;;;;;;;;24.11;nan;101208.22;5041431;28;19920;-89
2023/10/07 06:05:51;;;;;;;;;;;;;;;24.07;nan;101212.75;5039382;28;19927;-89
2023/10/07 06:08:16;;;;;;;;;;;;;;;24.07;nan;101215.50;5046193;28;19920;-90
2023/10/07 06:10:44;;;;;;;;;;;;;;;24.00;nan;101206.97;5038047;28;19929;-88
2023/10/07 06:13:09;;;;;;;;;;;;;;;24.01;nan;101215.97;5042561;28;19927;-89
2023/10/07 06:15:37;;;;;;;;;;;;;;;24.00;nan;101226.13;5042533;28;20357;-96
2023/10/07 06:18:04;;;;;;;;;;;;;;;24.06;nan;101235.78;5042242;28;19920;-90
2023/10/07 06:20:37;;;;;;;;;;;;;;;24.05;nan;101233.34;5046397;28;19924;-95
2023/10/07 06:23:13;;;;;;;;;;;;;;;24.01;nan;101244.16;5044126;28;19924;-93
2023/10/07 06:25:41;;;;;;;;;;;;;;;24.02;nan;101247.69;5025642;28;19927;-91
2023/10/07 06:28:06;;;;;;;;;;;;;;;23.97;nan;101253.34;5038606;28;19921;-90
2023/10/07 06:30:32;;;;;;;;;;;;;;;23.95;nan;101264.63;5045819;28;19947;-94
2023/10/07 06:32:58;;;;;;;;;;;;;;;23.88;nan;101267.06;5051186;28;19961;-94
2023/10/07 06:35:25;;;;;;;;;;;;;;;23.80;nan;101282.34;5046263;28;19986;-90
2023/10/07 06:37:57;;;;;;;;;;;;;;;23.74;nan;101289.13;5046898;28;20317;-90
2023/10/07 06:40:32;;;;;;;;;;;;;;;23.66;nan;101305.53;5045321;28;19917;-86
2023/10/07 06:42:58;;;;;;;;;;;;;;;23.68;nan;101300.53;5046378;28;19925;-89
2023/10/07 06:45:36;;;;;;;;;;;;;;;23.71;nan;101300.72;5040979;28;19935;-89
2023/10/07 06:48:05;;;;;;;;;;;;;;;23.73;nan;101306.69;5040491;28;20353;-86
2023/10/07 06:50:31;;;;;;;;;;;;;;;23.74;nan;101311.03;5038885;28;20497;-88
2023/10/07 06:52:56;;;;;;;;;;;;;;;23.70;nan;101320.22;5043206;28;20455;-87
2023/10/07 06:55:22;;;;;;;;;;;;;;;23.71;nan;101308.13;5045165;28;19917;-86
2023/10/07 06:57:56;;;;;;;;;;;;;;;23.69;nan;101319.38;5046078;28;20274;-85
2023/10/07 07:00:27;;;;;;;;;;;;;;;23.73;nan;101319.56;5039445;28;20054;-86
2023/10/07 07:02:59;;;;;;;;;;;;;;;23.73;nan;101323.09;5043566;28;20273;-86
2023/10/07 07:05:25;;;;;;;;;;;;;;;23.76;nan;101313.44;5044835;28;20015;-85
2023/10/07 07:07:54;;;;;;;;;;;;;;;23.76;nan;101313.44;5050457;28;19947;-86
2023/10/07 07:10:27;;;;;;;;;;;;;;;23.63;nan;101326.13;5046668;28;20019;-86
2023/10/07 07:12:54;;;;;;;;;;;;;;;23.58;nan;101329.03;5045945;28;19917;-85
2023/10/07 07:15:28;;;;;;;;;;;;;;;23.55;nan;101332.41;5043237;28;20569;-86
2023/10/07 07:18:07;;;;;;;;;;;;;;;23.47;nan;101324.97;5044859;28;20096;-85
2023/10/07 07:20:48;;;;;;;;;;;;;;;23.40;nan;101336.41;5039188;28;20200;-85
2023/10/07 07:23:16;;;;;;;;;;;;;;;23.34;nan;101323.19;5047821;28;19928;-85
2023/10/07 07:25:42;;;;;;;;;;;;;;;23.28;nan;101329.94;5044219;28;19920;-91
2023/10/07 07:28:09;;;;;;;;;;;;;;;23.19;nan;101328.00;5045657;28;19920;-84
2023/10/07 07:30:35;;;;;;;;;;;;;;;23.17;nan;101329.47;5043371;28;20189;-86
2023/10/07 07:33:08;;;;;;;;;;;;;;;23.16;nan;101334.13;5042414;28;20463;-84
2023/10/07 07:35:43;;;;;;;;;;;;;;;23.15;nan;101332.47;5038793;28;20168;-84
2023/10/07 07:38:23;;;;;;;;;;;;;;;23.15;nan;101321.56;5037755;28;20456;-85
2023/10/07 07:40:52;;;;;;;;;;;;;;;23.14;nan;101341.00;5037869;28;19921;-88
2023/10/07 07:43:25;;;;;;;;;;;;;;;23.15;nan;101318.81;5040980;28;19932;-87
2023/10/07 07:45:56;;;;;;;;;;;;;;;23.15;nan;101332.47;5025003;28;19920;-87
2023/10/07 07:48:21;;;;;;;;;;;;;;;23.14;nan;101333.59;5042972;28;19921;-88
2023/10/07 07:50:48;;;;;;;;;;;;;;;23.11;nan;101336.97;5024979;28;19987;-85
2023/10/07 07:53:14;;;;;;;;;;;;;;;23.08;nan;101350.47;5038110;28;19928;-85
2023/10/07 07:55:43;;;;;;;;;;;;;;;23.01;nan;101353.69;5046721;28;20507;-86
2023/10/07 07:58:09;;;;;;;;;;;;;;;23.02;nan;101347.09;5042845;28;19978;-85
2023/10/07 08:00:40;;;;;;;;;;;;;;;23.01;nan;101350.97;5045883;28;19928;-84
2023/10/07 08:03:07;;;;;;;;;;;;;;;22.98;nan;101361.69;5045941;28;21420;-86
2023/10/07 08:05:34;;;;;;;;;;;;;;;22.94;nan;101372.47;5029350;28;19927;-89
2023/10/07 08:08:00;;;;;;;;;;;;;;;22.96;nan;101370.22;5042714;28;19916;-90
2023/10/07 08:10:28;;;;;;;;;;;;;;;22.98;nan;101369.91;5046567;28;19932;-87
2023/10/07 08:12:53;;;;;;;;;;;;;;;23.02;nan;101374.44;5047675;28;20077;-87
2023/10/07 08:15:22;;;;;;;;;;;;;;;23.05;nan;101381.19;5032358;28;19924;-90
2023/10/07 08:17:50;;;;;;;;;;;;;;;23.06;nan;101382.78;5042302;28;19971;-89
2023/10/07 08:20:16;;;;;;;;;;;;;;;23.11;nan;101377.97;5049423;28;20447;-89
2023/10/07 08:22:51;;;;;;;;;;;;;;;23.14;nan;101374.59;5035959;28;19952;-89
2023/10/07 08:25:37;;;;;;;;;;;;;;;23.17;nan;101374.00;5031324;28;19921;-89
2023/10/07 08:28:38;;;;;;;;;;;;;;;23.25;nan;101380.59;5050116;28;20380;-90
2023/10/07 08:31:13;;;;;;;;;;;;;;;23.25;nan;101388.00;5040542;28;19928;-88
2023/10/07 08:33:39;;;;;;;;;;;;;;;23.24;nan;101387.19;5042882;28;19917;-89
2023/10/07 08:36:07;;;;;;;;;;;;;;;23.26;nan;101378.66;5041071;28;19924;-90
2023/10/07 08:38:43;;;;;;;;;;;;;;;23.26;nan;101381.41;5042895;28;20034;-90
2023/10/07 08:41:18;;;;;;;;;;;;;;;23.27;nan;101383.00;5041059;28;20443;-88
2023/10/07 08:43:45;;;;;;;;;;;;;;;23.28;nan;101387.34;5040267;28;19928;-89
2023/10/07 08:46:15;;;;;;;;;;;;;;;23.27;nan;101385.75;5042170;28;20034;-88
2023/10/07 08:48:49;;;;;;;;;;;;;;;23.26;nan;101384.13;5038406;28;19948;-90
2023/10/07 08:51:17;;;;;;;;;;;;;;;23.25;nan;101382.53;5042195;28;19928;-90
2023/10/07 08:53:42;;;;;;;;;;;;;;;23.25;nan;101388.00;5043341;28;19928;-88
2023/10/07 08:56:12;;;;;;;;;;;;;;;23.28;nan;101390.09;5044087;28;20424;-90
2023/10/07 08:58:40;;;;;;;;;;;;;;;23.23;nan;101387.50;5039306;28;20380;-84
2023/10/07 09:01:07;;;;;;;;;;;;;;;23.23;nan;101382.84;5042379;28;19929;-84
2023/10/07 09:03:39;;;;;;;;;;;;;;;23.25;nan;101382.53;5021287;28;20003;-86
2023/10/07 09:06:06;;;;;;;;;;;;;;;23.18;nan;101397.47;5044068;28;20340;-86
2023/10/07 09:08:33;;;;;;;;;;;;;;;23.18;nan;101405.69;5036556;28;19928;-86
2023/10/07 09:10:59;;;;;;;;;;;;;;;23.15;nan;101409.03;5040242;28;19932;-85
2023/10/07 09:13:28;;;;;;;;;;;;;;;23.11;nan;101413.53;5038454;28;19917;-86
2023/10/07 09:15:55;;;;;;;;;;;;;;;23.07;nan;101420.75;5039376;28;19921;-86
2023/10/07 09:18:28;;;;;;;;;;;;;;;23.06;nan;101416.41;5036128;28;19973;-87
2023/10/07 09:20:56;;;;;;;;;;;;;;;23.11;nan;101418.97;5033365;28;19920;-87
2023/10/07 09:23:23;;;;;;;;;;;;;;;23.09;nan;101415.75;5039958;28;20490;-86
2023/10/07 09:25:52;;;;;;;;;;;;;;;23.15;nan;101422.69;5039594;28;19946;-87
2023/10/07 09:28:35;;;;;;;;;;;;;;;23.14;nan;101423.81;5034018;28;20137;-85
2023/10/07 09:31:05;;;;;;;;;;;;;;;23.09;nan;101418.50;5035498;28;19975;-85
2023/10/07 09:33:35;;;;;;;;;;;;;;;23.12;nan;101415.13;5038738;28;20007;-87
2023/10/07 09:38:48;;;;;;;;;;;;;;;23.10;nan;101417.38;5030276;28;20301;-85
2023/10/07 09:41:23;;;;;;;;;;;;;;;23.10;nan;101422.03;5038786;28;19927;-85
2023/10/07 09:43:51;;;;;;;;;;;;;;;23.11;nan;101427.19;5032405;28;19924;-86
2023/10/07 09:46:24;;;;;;;;;;;;;;;23.10;nan;101419.31;5033570;28;20119;-86
2023/10/07 09:48:51;;;;;;;;;;;;;;;23.10;nan;101422.84;5034960;28;19924;-86
2023/10/07 09:51:24;;;;;;;;;;;;;;;23.19;nan;101418.22;5036851;28;19970;-87
2023/10/07 09:53:55;;;;;;;;;;;;;;;23.26;nan;101420.47;5036042;28;19946;-85
2023/10/07 09:56:38;;;;;;;;;;;;;;;23.23;nan;101415.66;5040927;28;20446;-86
2023/10/07 09:59:13;;;;;;;;;;;;;;;23.27;nan;101416.63;5035384;28;19963;-85
2023/10/07 10:01:53;;;;;;;;;;;;;;;23.40;nan;101409.44;5033044;28;19921;-87
2023/10/07 10:04:26;;;;;;;;;;;;;;;23.42;nan;101418.94;5041653;28;19986;-85
2023/10/07 10:07:05;;;;;;;;;;;;;;;23.51;nan;101416.19;5046477;28;19928;-86
2023/10/07 10:09:42;;;;;;;;;;;;;;;23.54;nan;101415.56;5041345;28;19924;-86
2023/10/07 10:12:18;;;;;;;;;;;;;;;23.57;nan;101414.97;5040185;28;19928;-85
2023/10/07 10:17:53;;;;;;;;;;;;;;;23.59;nan;101423.66;4939071;29;19923;-86
2023/10/07 10:20:20;;;;;;;;;;;;;;;23.57;nan;101425.91;5020957;28;20496;-86
2023/10/07 10:22:52;;;;;;;;;;;;;;;23.52;nan;101426.84;5039416;28;20388;-86
2023/10/07 10:25:36;;;;;;;;;;;;;;;23.51;nan;101425.19;5036346;28;19994;-86
2023/10/07 10:28:07;;;;;;;;;;;;;;;23.50;nan;101431.00;5041660;28;20015;-85
2023/10/07 10:30:33;;;;;;;;;;;;;;;23.49;nan;101421.97;5037969;28;19924;-85
2023/10/07 10:33:00;;;;;;;;;;;;;;;23.44;nan;101426.81;5039884;28;20443;-86
2023/10/07 10:35:26;;;;;;;;;;;;;;;23.40;nan;101429.38;5039065;28;20054;-86
2023/10/07 10:37:58;;;;;;;;;;;;;;;23.37;nan;101429.22;5035992;28;19963;-87
2023/10/07 10:40:24;;;;;;;;;;;;;;;23.33;nan;101425.47;5037661;28;19931;-85
2023/10/07 10:42:50;;;;;;;;;;;;;;;23.24;nan;101430.94;5039312;28;20372;-86
2023/10/07 10:45:23;;;;;;;;;;;;;;;23.20;nan;101429.97;5037867;28;19995;-85
2023/10/07 10:47:52;;;;;;;;;;;;;;;23.16;nan;101426.22;5036062;28;19963;-85
2023/10/07 10:50:19;;;;;;;;;;;;;;;23.17;nan;101425.13;5037066;28;20046;-85
2023/10/07 10:52:48;;;;;;;;;;;;;;;23.20;nan;101422.56;5035175;28;19936;-86
2023/10/07 10:55:14;;;;;;;;;;;;;;;23.17;nan;101423.22;5033431;28;20212;-86
2023/10/07 10:57:40;;;;;;;;;;;;;;;23.17;nan;101422.41;5030910;28;20053;-86
2023/10/07 11:00:16;;;;;;;;;;;;;;;23.18;nan;101421.28;5038072;28;20421;-85
2023/10/07 11:02:41;;;;;;;;;;;;;;;23.20;nan;101416.28;5037075;28;20004;-85
2023/10/07 11:05:08;;;;;;;;;;;;;;;23.21;nan;101412.44;5034404;28;19928;-86
2023/10/07 11:07:36;;;;;;;;;;;;;;;23.16;nan;101399.72;5033817;28;19928;-85
2023/10/07 11:10:03;;;;;;;;;;;;;;;23.09;nan;101399.38;5031912;28;20285;-86
2023/10/07 11:12:29;;;;;;;;;;;;;;;23.05;nan;101400.31;5033612;28;20809;-86
2023/10/07 11:15:13;;;;;;;;;;;;;;;22.96;nan;101405.75;5038010;28;19924;-86
2023/10/07 11:17:41;;;;;;;;;;;;;;;22.85;nan;101394.31;5040535;28;20003;-85
2023/10/07 11:20:09;;;;;;;;;;;;;;;22.84;nan;101389.16;5034748;28;19925;-85
2023/10/07 11:22:42;;;;;;;;;;;;;;;22.85;nan;101391.56;5038232;28;19921;-86
2023/10/07 11:25:14;;;;;;;;;;;;;;;22.86;nan;101384.19;5035098;28;19921;-86
2023/10/07 11:27:42;;;;;;;;;;;;;;;22.89;nan;101389.00;5030266;28;19967;-85
2023/10/07 11:30:11;;;;;;;;;;;;;;;22.86;nan;101386.91;5034260;28;19924;-85
2023/10/07 11:32:39;;;;;;;;;;;;;;;22.86;nan;101378.72;5029789;28;20368;-85
2023/10/07 11:35:27;;;;;;;;;;;;;;;22.88;nan;101377.28;5033967;28;19929;-85
2023/10/07 11:37:59;;;;;;;;;;;;;;;22.86;nan;101375.97;5031299;28;19921;-86
2023/10/07 11:40:25;;;;;;;;;;;;;;;22.87;nan;101375.66;5028481;28;19982;-85
2023/10/07 11:42:51;;;;;;;;;;;;;;;22.90;nan;101379.69;5029291;28;20344;-85
2023/10/07 11:45:16;;;;;;;;;;;;;;;22.93;nan;101368.13;5031375;28;19928;-85
2023/10/07 11:47:42;;;;;;;;;;;;;;;22.94;nan;101374.38;5033264;28;19916;-85
2023/10/07 11:50:08;;;;;;;;;;;;;;;22.94;nan;101372.47;5033940;28;21017;-85
2023/10/07 11:52:37;;;;;;;;;;;;;;;22.91;nan;101365.69;5039306;28;19928;-85
2023/10/07 11:55:07;;;;;;;;;;;;;;;22.91;nan;101370.38;5038757;28;19960;-85
2023/10/07 11:57:33;;;;;;;;;;;;;;;22.94;nan;101366.19;5039881;28;20018;-85
2023/10/07 11:59:58;;;;;;;;;;;;;;;22.91;nan;101370.38;5031112;28;20344;-85
2023/10/07 12:02:23;;;;;;;;;;;;;;;22.89;nan;101361.69;5033452;28;19947;-86
2023/10/07 12:04:50;;;;;;;;;;;;;;;22.90;nan;101371.50;5036621;28;20078;-85
2023/10/07 12:07:16;;;;;;;;;;;;;;;22.86;nan;101379.50;5034010;28;20088;-84
2023/10/07 12:09:42;;;;;;;;;;;;;;;22.85;nan;101374.38;5037710;28;19928;-85
2023/10/07 12:12:10;;;;;;;;;;;;;;;22.82;nan;101378.53;5038473;28;20400;-85
2023/10/07 12:14:36;;;;;;;;;;;;;;;22.77;nan;101375.09;5031247;28;20372;-85
2023/10/07 12:17:03;;;;;;;;;;;;;;;22.75;nan;101378.13;5032397;28;19917;-85
2023/10/07 12:19:30;;;;;;;;;;;;;;;22.72;nan;101367.84;5036820;28;19928;-85
2023/10/07 12:21:56;;;;;;;;;;;;;;;22.61;nan;101369.22;5035422;28;19920;-85
2023/10/07 12:24:21;;;;;;;;;;;;;;;22.61;nan;101367.31;5041251;28;19935;-84
2023/10/07 12:26:47;;;;;;;;;;;;;;;22.61;nan;101350.09;5037975;28;20026;-85
2023/10/07 12:29:13;;;;;;;;;;;;;;;22.68;nan;101360.59;5033655;28;19966;-85
2023/10/07 12:31:39;;;;;;;;;;;;;;;22.75;nan;101360.94;5036607;28;20028;-85
2023/10/07 12:34:05;;;;;;;;;;;;;;;22.78;nan;101363.84;5037233;28;20017;-86
2023/10/07 12:36:30;;;;;;;;;;;;;;;22.81;nan;101365.97;5037965;28;19921;-85
2023/10/07 12:38:56;;;;;;;;;;;;;;;22.83;nan;101369.22;5035936;28;21402;-85
2023/10/07 12:41:21;;;;;;;;;;;;;;;22.83;nan;101360.22;5033460;28;19952;-85
2023/10/07 12:43:47;;;;;;;;;;;;;;;22.83;nan;101357.50;5025437;28;20024;-84
2023/10/07 12:46:14;;;;;;;;;;;;;;;22.83;nan;101358.28;5017160;28;20342;-85
2023/10/07 12:48:40;;;;;;;;;;;;;;;22.89;nan;101365.22;5034366;28;19928;-86
2023/10/07 12:51:06;;;;;;;;;;;;;;;22.94;nan;101358.78;5038846;28;19928;-84
2023/10/07 12:53:33;;;;;;;;;;;;;;;22.97;nan;101355.44;5031917;28;20331;-85
2023/10/07 12:55:58;;;;;;;;;;;;;;;23.01;nan;101363.81;5035992;28;19921;-85
2023/10/07 12:58:27;;;;;;;;;;;;;;;23.02;nan;101368.97;5027764;28;20587;-85
2023/10/07 13:00:53;;;;;;;;;;;;;;;23.02;nan;101373.63;5035943;28;21048;-85
2023/10/07 13:03:18;;;;;;;;;;;;;;;23.02;nan;101377.16;5032467;28;19924;-85
2023/10/07 13:05:45;;;;;;;;;;;;;;;23.04;nan;101374.13;5037353;28;20034;-85
2023/10/07 13:08:17;;;;;;;;;;;;;;;23.05;nan;101378.47;5033903;28;20136;-86
2023/10/07 13:10:43;;;;;;;;;;;;;;;23.01;nan;101377.47;5035851;28;20027;-85
2023/10/07 13:13:08;;;;;;;;;;;;;;;22.94;nan;101379.84;5015016;28;19925;-85
2023/10/07 13:15:35;;;;;;;;;;;;;;;22.89;nan;101375.34;5035537;28;20376;-85
2023/10/07 13:18:03;;;;;;;;;;;;;;;22.87;nan;101372.13;5036326;28;20007;-86
2023/10/07 13:20:29;;;;;;;;;;;;;;;22.85;nan;101380.63;5036988;28;19924;-85
2023/10/07 13:23:00;;;;;;;;;;;;;;;22.85;nan;101383.38;5035722;28;19924;-85
2023/10/07 13:25:26;;;;;;;;;;;;;;;22.94;nan;101379.84;5036504;28;19960;-85
2023/10/07 13:27:55;;;;;;;;;;;;;;;22.91;nan;101379.38;5036721;28;20436;-85
2023/10/07 13:30:24;;;;;;;;;;;;;;;22.89;nan;101387.06;5037828;28;19925;-85
2023/10/07 13:32:52;;;;;;;;;;;;;;;22.90;nan;101385.97;5027420;28;19921;-84
2023/10/07 13:35:19;;;;;;;;;;;;;;;22.87;nan;101385.78;5035613;28;19927;-85